Terminal Aerodrome Forecast
Issued by NWS Green Bay, WI

Home | Current Version | Previous Version | Graphics & Text | Print | Product List | Glossary On
Versions: 1 2 3 4 5 6 7 8 9 10 11 12 13 14 15 16 17 18 19 20 21 22 23 24 25 26 27 28 29 30 31 32
000
FTUS43 KGRB 062125 AAB
TAFGRB
TAF AMD
KGRB 062125Z 0621/0718 23011G20KT P6SM BKN016
      TEMPO 0622/0701 SCT025
     FM070100 25013G21KT P6SM BKN025
     FM071400 25013G23KT P6SM BKN040=

USA.gov is the U.S. government's official web portal to all federal, state and local government web resources and services.